sensor_id;sensor_type;location;lat;lon;timestamp;temperature;humidity
7720;DHT22;3902;49.474;8.616;2023-05-21T00:01:52;18.00;99.90
7720;DHT22;3902;49.474;8.616;2023-05-21T00:04:18;17.90;99.90
7720;DHT22;3902;49.474;8.616;2023-05-21T00:06:43;17.90;99.90
7720;DHT22;3902;49.474;8.616;2023-05-21T00:09:09;17.90;99.90
7720;DHT22;3902;49.474;8.616;2023-05-21T00:11:37;17.90;99.90
7720;DHT22;3902;49.474;8.616;2023-05-21T00:14:02;17.90;99.90
7720;DHT22;3902;49.474;8.616;2023-05-21T00:16:28;17.80;99.90
7720;DHT22;3902;49.474;8.616;2023-05-21T00:18:53;17.80;99.90
7720;DHT22;3902;49.474;8.616;2023-05-21T00:21:19;17.90;99.90
7720;DHT22;3902;49.474;8.616;2023-05-21T00:23:48;17.80;99.90
7720;DHT22;3902;49.474;8.616;2023-05-21T00:26:14;17.80;99.90
7720;DHT22;3902;49.474;8.616;2023-05-21T00:28:40;17.80;99.90
7720;DHT22;3902;49.474;8.616;2023-05-21T00:31:05;17.80;99.90
7720;DHT22;3902;49.474;8.616;2023-05-21T00:33:30;17.80;99.90
7720;DHT22;3902;49.474;8.616;2023-05-21T00:35:56;17.80;99.90
7720;DHT22;3902;49.474;8.616;2023-05-21T00:38:23;17.80;99.90
7720;DHT22;3902;49.474;8.616;2023-05-21T00:40:49;17.70;99.90
7720;DHT22;3902;49.474;8.616;2023-05-21T00:43:14;17.70;99.90
7720;DHT22;3902;49.474;8.616;2023-05-21T00:45:40;17.70;99.90
7720;DHT22;3902;49.474;8.616;2023-05-21T00:48:10;17.70;99.90
7720;DHT22;3902;49.474;8.616;2023-05-21T00:50:37;17.60;99.90
7720;DHT22;3902;49.474;8.616;2023-05-21T00:53:05;17.60;99.90
7720;DHT22;3902;49.474;8.616;2023-05-21T00:55:37;17.50;99.90
7720;DHT22;3902;49.474;8.616;2023-05-21T00:58:03;17.50;99.90
7720;DHT22;3902;49.474;8.616;2023-05-21T01:00:34;17.50;99.90
7720;DHT22;3902;49.474;8.616;2023-05-21T01:03:00;17.50;99.90
7720;DHT22;3902;49.474;8.616;2023-05-21T01:05:29;17.50;99.90
7720;DHT22;3902;49.474;8.616;2023-05-21T01:07:55;17.50;99.90
7720;DHT22;3902;49.474;8.616;2023-05-21T01:10:22;17.50;99.90
7720;DHT22;3902;49.474;8.616;2023-05-21T01:12:48;17.50;99.90
7720;DHT22;3902;49.474;8.616;2023-05-21T01:15:15;17.50;99.90
7720;DHT22;3902;49.474;8.616;2023-05-21T01:17:41;17.50;99.90
7720;DHT22;3902;49.474;8.616;2023-05-21T01:20:07;17.50;99.90
7720;DHT22;3902;49.474;8.616;2023-05-21T01:22:35;17.50;99.90
7720;DHT22;3902;49.474;8.616;2023-05-21T01:25:04;17.40;99.90
7720;DHT22;3902;49.474;8.616;2023-05-21T01:27:29;17.40;99.90
7720;DHT22;3902;49.474;8.616;2023-05-21T01:29:55;17.30;99.90
7720;DHT22;3902;49.474;8.616;2023-05-21T01:32:31;17.30;99.90
7720;DHT22;3902;49.474;8.616;2023-05-21T01:35:04;17.40;99.90
7720;DHT22;3902;49.474;8.616;2023-05-21T01:40:33;17.30;99.90
7720;DHT22;3902;49.474;8.616;2023-05-21T01:43:01;17.20;99.90
7720;DHT22;3902;49.474;8.616;2023-05-21T01:45:30;17.20;99.90
7720;DHT22;3902;49.474;8.616;2023-05-21T01:47:56;17.20;99.90
7720;DHT22;3902;49.474;8.616;2023-05-21T01:50:23;17.20;99.90
7720;DHT22;3902;49.474;8.616;2023-05-21T01:52:54;17.30;99.90
7720;DHT22;3902;49.474;8.616;2023-05-21T01:55:21;17.20;99.90
7720;DHT22;3902;49.474;8.616;2023-05-21T01:57:50;17.30;99.90
7720;DHT22;3902;49.474;8.616;2023-05-21T02:00:17;17.30;99.90
7720;DHT22;3902;49.474;8.616;2023-05-21T02:02:42;17.20;99.90
7720;DHT22;3902;49.474;8.616;2023-05-21T02:05:08;17.20;99.90
7720;DHT22;3902;49.474;8.616;2023-05-21T02:07:34;17.20;99.90
7720;DHT22;3902;49.474;8.616;2023-05-21T02:09:59;17.20;99.90
7720;DHT22;3902;49.474;8.616;2023-05-21T02:12:25;17.20;99.90
7720;DHT22;3902;49.474;8.616;2023-05-21T02:14:52;17.20;99.90
7720;DHT22;3902;49.474;8.616;2023-05-21T02:17:18;17.20;99.90
7720;DHT22;3902;49.474;8.616;2023-05-21T02:19:43;17.20;99.90
7720;DHT22;3902;49.474;8.616;2023-05-21T02:22:09;17.20;99.90
7720;DHT22;3902;49.474;8.616;2023-05-21T02:24:35;17.20;99.90
7720;DHT22;3902;49.474;8.616;2023-05-21T02:27:01;17.20;99.90
7720;DHT22;3902;49.474;8.616;2023-05-21T02:29:27;17.20;99.90
7720;DHT22;3902;49.474;8.616;2023-05-21T02:31:53;17.20;99.90
7720;DHT22;3902;49.474;8.616;2023-05-21T02:34:18;17.20;99.90
7720;DHT22;3902;49.474;8.616;2023-05-21T02:36:46;17.20;99.90
7720;DHT22;3902;49.474;8.616;2023-05-21T02:39:17;17.20;99.90
7720;DHT22;3902;49.474;8.616;2023-05-21T02:41:43;17.20;99.90
7720;DHT22;3902;49.474;8.616;2023-05-21T02:44:08;17.20;99.90
7720;DHT22;3902;49.474;8.616;2023-05-21T02:46:34;17.20;99.90
7720;DHT22;3902;49.474;8.616;2023-05-21T02:48:59;17.20;99.90
7720;DHT22;3902;49.474;8.616;2023-05-21T02:51:25;17.20;99.90
7720;DHT22;3902;49.474;8.616;2023-05-21T02:53:50;17.20;99.90
7720;DHT22;3902;49.474;8.616;2023-05-21T02:56:16;17.20;99.90
7720;DHT22;3902;49.474;8.616;2023-05-21T02:58:41;17.20;99.90
7720;DHT22;3902;49.474;8.616;2023-05-21T03:01:07;17.20;99.90
7720;DHT22;3902;49.474;8.616;2023-05-21T03:03:32;17.20;99.90
7720;DHT22;3902;49.474;8.616;2023-05-21T03:05:58;17.20;99.90
7720;DHT22;3902;49.474;8.616;2023-05-21T03:08:23;17.10;99.90
7720;DHT22;3902;49.474;8.616;2023-05-21T03:10:49;17.10;99.90
7720;DHT22;3902;49.474;8.616;2023-05-21T03:13:15;17.10;99.90
7720;DHT22;3902;49.474;8.616;2023-05-21T03:15:40;17.10;99.90
7720;DHT22;3902;49.474;8.616;2023-05-21T03:18:06;17.10;99.90
7720;DHT22;3902;49.474;8.616;2023-05-21T03:20:31;17.10;99.90
7720;DHT22;3902;49.474;8.616;2023-05-21T03:22:57;17.10;99.90
7720;DHT22;3902;49.474;8.616;2023-05-21T03:25:24;17.10;99.90
7720;DHT22;3902;49.474;8.616;2023-05-21T03:27:50;17.10;99.90
7720;DHT22;3902;49.474;8.616;2023-05-21T03:30:16;17.10;99.90
7720;DHT22;3902;49.474;8.616;2023-05-21T03:32:42;17.10;99.90
7720;DHT22;3902;49.474;8.616;2023-05-21T03:35:09;17.10;99.90
7720;DHT22;3902;49.474;8.616;2023-05-21T03:37:35;17.00;99.90
7720;DHT22;3902;49.474;8.616;2023-05-21T03:40:00;17.00;99.90
7720;DHT22;3902;49.474;8.616;2023-05-21T03:42:26;17.00;99.90
7720;DHT22;3902;49.474;8.616;2023-05-21T03:44:51;17.10;99.90
7720;DHT22;3902;49.474;8.616;2023-05-21T03:47:17;17.10;99.90
7720;DHT22;3902;49.474;8.616;2023-05-21T03:49:42;17.00;99.90
7720;DHT22;3902;49.474;8.616;2023-05-21T03:52:07;17.00;99.90
7720;DHT22;3902;49.474;8.616;2023-05-21T03:54:33;17.00;99.90
7720;DHT22;3902;49.474;8.616;2023-05-21T03:56:58;16.90;99.90
7720;DHT22;3902;49.474;8.616;2023-05-21T03:59:24;16.90;99.90
7720;DHT22;3902;49.474;8.616;2023-05-21T04:01:50;16.90;99.90
7720;DHT22;3902;49.474;8.616;2023-05-21T04:04:16;16.90;99.90
7720;DHT22;3902;49.474;8.616;2023-05-21T04:06:41;16.90;99.90
7720;DHT22;3902;49.474;8.616;2023-05-21T04:09:08;17.00;99.90
7720;DHT22;3902;49.474;8.616;2023-05-21T04:11:34;17.00;99.90
7720;DHT22;3902;49.474;8.616;2023-05-21T04:13:59;16.90;99.90
7720;DHT22;3902;49.474;8.616;2023-05-21T04:16:25;17.00;99.90
7720;DHT22;3902;49.474;8.616;2023-05-21T04:18:51;16.90;99.90
7720;DHT22;3902;49.474;8.616;2023-05-21T04:21:19;16.90;99.90
7720;DHT22;3902;49.474;8.616;2023-05-21T04:23:45;16.90;99.90
7720;DHT22;3902;49.474;8.616;2023-05-21T04:26:11;16.90;99.90
7720;DHT22;3902;49.474;8.616;2023-05-21T04:28:37;16.90;99.90
7720;DHT22;3902;49.474;8.616;2023-05-21T04:31:06;16.90;99.90
7720;DHT22;3902;49.474;8.616;2023-05-21T04:33:33;16.90;99.90
7720;DHT22;3902;49.474;8.616;2023-05-21T04:36:00;16.90;99.90
7720;DHT22;3902;49.474;8.616;2023-05-21T04:38:25;17.00;99.90
7720;DHT22;3902;49.474;8.616;2023-05-21T04:40:52;17.00;99.90
7720;DHT22;3902;49.474;8.616;2023-05-21T04:43:18;16.90;99.90
7720;DHT22;3902;49.474;8.616;2023-05-21T04:45:50;17.00;99.90
7720;DHT22;3902;49.474;8.616;2023-05-21T04:48:15;16.90;99.90
7720;DHT22;3902;49.474;8.616;2023-05-21T04:50:42;16.90;99.90
7720;DHT22;3902;49.474;8.616;2023-05-21T04:53:07;17.00;99.90
7720;DHT22;3902;49.474;8.616;2023-05-21T04:55:33;16.90;99.90
7720;DHT22;3902;49.474;8.616;2023-05-21T04:58:04;17.00;99.90
7720;DHT22;3902;49.474;8.616;2023-05-21T05:00:30;17.00;99.90
7720;DHT22;3902;49.474;8.616;2023-05-21T05:02:55;17.00;99.90
7720;DHT22;3902;49.474;8.616;2023-05-21T05:05:21;17.00;99.90
7720;DHT22;3902;49.474;8.616;2023-05-21T05:07:46;17.00;99.90
7720;DHT22;3902;49.474;8.616;2023-05-21T05:10:12;17.00;99.90
7720;DHT22;3902;49.474;8.616;2023-05-21T05:12:38;17.00;99.90
7720;DHT22;3902;49.474;8.616;2023-05-21T05:15:03;16.90;99.90
7720;DHT22;3902;49.474;8.616;2023-05-21T05:17:29;16.90;99.90
7720;DHT22;3902;49.474;8.616;2023-05-21T05:19:54;16.90;99.90
7720;DHT22;3902;49.474;8.616;2023-05-21T05:22:20;16.90;99.90
7720;DHT22;3902;49.474;8.616;2023-05-21T05:24:45;16.90;99.90
7720;DHT22;3902;49.474;8.616;2023-05-21T05:27:11;16.90;99.90
7720;DHT22;3902;49.474;8.616;2023-05-21T05:29:36;16.80;99.90
7720;DHT22;3902;49.474;8.616;2023-05-21T05:32:02;16.80;99.90
7720;DHT22;3902;49.474;8.616;2023-05-21T05:34:27;16.90;99.90
7720;DHT22;3902;49.474;8.616;2023-05-21T05:36:53;16.90;99.90
7720;DHT22;3902;49.474;8.616;2023-05-21T05:39:18;16.90;99.90
7720;DHT22;3902;49.474;8.616;2023-05-21T05:41:44;16.90;99.90
7720;DHT22;3902;49.474;8.616;2023-05-21T05:44:09;16.90;99.90
7720;DHT22;3902;49.474;8.616;2023-05-21T05:46:35;17.00;99.90
7720;DHT22;3902;49.474;8.616;2023-05-21T05:49:00;16.90;99.90
7720;DHT22;3902;49.474;8.616;2023-05-21T05:51:26;16.90;99.90
7720;DHT22;3902;49.474;8.616;2023-05-21T05:53:51;16.90;99.90
7720;DHT22;3902;49.474;8.616;2023-05-21T05:56:17;16.90;99.90
7720;DHT22;3902;49.474;8.616;2023-05-21T05:58:42;16.90;99.90
7720;DHT22;3902;49.474;8.616;2023-05-21T06:01:08;16.90;99.90
7720;DHT22;3902;49.474;8.616;2023-05-21T06:03:33;17.00;99.90
7720;DHT22;3902;49.474;8.616;2023-05-21T06:05:59;17.00;99.90
7720;DHT22;3902;49.474;8.616;2023-05-21T06:08:24;17.00;99.90
7720;DHT22;3902;49.474;8.616;2023-05-21T06:10:50;17.00;99.90
7720;DHT22;3902;49.474;8.616;2023-05-21T06:13:15;17.00;99.90
7720;DHT22;3902;49.474;8.616;2023-05-21T06:15:41;17.10;99.90
7720;DHT22;3902;49.474;8.616;2023-05-21T06:18:09;17.10;99.90
7720;DHT22;3902;49.474;8.616;2023-05-21T06:20:35;17.10;99.90
7720;DHT22;3902;49.474;8.616;2023-05-21T06:23:01;17.10;99.90
7720;DHT22;3902;49.474;8.616;2023-05-21T06:25:26;17.20;99.90
7720;DHT22;3902;49.474;8.616;2023-05-21T06:27:52;17.20;99.90
7720;DHT22;3902;49.474;8.616;2023-05-21T06:30:17;17.30;99.90
7720;DHT22;3902;49.474;8.616;2023-05-21T06:32:43;17.30;99.90
7720;DHT22;3902;49.474;8.616;2023-05-21T06:35:09;17.40;99.90
7720;DHT22;3902;49.474;8.616;2023-05-21T06:37:34;17.40;99.90
7720;DHT22;3902;49.474;8.616;2023-05-21T06:40:00;17.40;99.90
7720;DHT22;3902;49.474;8.616;2023-05-21T06:42:26;17.50;99.90
7720;DHT22;3902;49.474;8.616;2023-05-21T06:44:51;17.50;99.90
7720;DHT22;3902;49.474;8.616;2023-05-21T06:47:17;17.60;99.90
7720;DHT22;3902;49.474;8.616;2023-05-21T06:49:42;17.60;99.90
7720;DHT22;3902;49.474;8.616;2023-05-21T06:52:08;17.70;99.90
7720;DHT22;3902;49.474;8.616;2023-05-21T06:54:33;17.80;99.90
7720;DHT22;3902;49.474;8.616;2023-05-21T06:56:59;17.80;99.90
7720;DHT22;3902;49.474;8.616;2023-05-21T06:59:25;17.90;99.90
7720;DHT22;3902;49.474;8.616;2023-05-21T07:01:50;18.00;99.90
7720;DHT22;3902;49.474;8.616;2023-05-21T07:04:16;18.00;99.90
7720;DHT22;3902;49.474;8.616;2023-05-21T07:06:41;18.10;99.90
7720;DHT22;3902;49.474;8.616;2023-05-21T07:09:07;18.10;99.90
7720;DHT22;3902;49.474;8.616;2023-05-21T07:11:33;18.20;99.90
7720;DHT22;3902;49.474;8.616;2023-05-21T07:13:59;18.20;99.90
7720;DHT22;3902;49.474;8.616;2023-05-21T07:16:28;18.20;99.90
7720;DHT22;3902;49.474;8.616;2023-05-21T07:18:53;18.30;99.90
7720;DHT22;3902;49.474;8.616;2023-05-21T07:21:19;18.40;99.90
7720;DHT22;3902;49.474;8.616;2023-05-21T07:23:45;18.40;99.90
7720;DHT22;3902;49.474;8.616;2023-05-21T07:26:10;18.50;99.90
7720;DHT22;3902;49.474;8.616;2023-05-21T07:28:36;18.50;99.90
7720;DHT22;3902;49.474;8.616;2023-05-21T07:31:01;18.60;99.90
7720;DHT22;3902;49.474;8.616;2023-05-21T07:33:27;18.60;99.90
7720;DHT22;3902;49.474;8.616;2023-05-21T07:35:52;18.60;99.90
7720;DHT22;3902;49.474;8.616;2023-05-21T07:38:18;18.70;99.90
7720;DHT22;3902;49.474;8.616;2023-05-21T07:40:44;18.80;99.90
7720;DHT22;3902;49.474;8.616;2023-05-21T07:43:09;18.80;99.90
7720;DHT22;3902;49.474;8.616;2023-05-21T07:45:35;18.80;99.90
7720;DHT22;3902;49.474;8.616;2023-05-21T07:48:00;18.90;99.90
7720;DHT22;3902;49.474;8.616;2023-05-21T07:50:26;18.90;99.90
7720;DHT22;3902;49.474;8.616;2023-05-21T07:52:51;18.90;99.90
7720;DHT22;3902;49.474;8.616;2023-05-21T07:55:17;19.00;99.90
7720;DHT22;3902;49.474;8.616;2023-05-21T07:57:42;19.00;99.90
7720;DHT22;3902;49.474;8.616;2023-05-21T08:00:10;19.00;99.90
7720;DHT22;3902;49.474;8.616;2023-05-21T08:02:38;19.10;99.90
7720;DHT22;3902;49.474;8.616;2023-05-21T08:05:04;19.20;99.90
7720;DHT22;3902;49.474;8.616;2023-05-21T08:07:30;19.20;99.90
7720;DHT22;3902;49.474;8.616;2023-05-21T08:09:57;19.30;99.90
7720;DHT22;3902;49.474;8.616;2023-05-21T08:12:22;19.30;99.90
7720;DHT22;3902;49.474;8.616;2023-05-21T08:14:48;19.40;99.90
7720;DHT22;3902;49.474;8.616;2023-05-21T08:17:14;19.40;99.90
7720;DHT22;3902;49.474;8.616;2023-05-21T08:19:40;19.50;99.90
7720;DHT22;3902;49.474;8.616;2023-05-21T08:22:06;19.50;99.90
7720;DHT22;3902;49.474;8.616;2023-05-21T08:24:31;19.70;99.90
7720;DHT22;3902;49.474;8.616;2023-05-21T08:26:57;19.70;99.90
7720;DHT22;3902;49.474;8.616;2023-05-21T08:29:23;19.80;99.90
7720;DHT22;3902;49.474;8.616;2023-05-21T08:31:48;19.80;99.90
7720;DHT22;3902;49.474;8.616;2023-05-21T08:34:14;19.80;99.90
7720;DHT22;3902;49.474;8.616;2023-05-21T08:36:39;19.90;99.90
7720;DHT22;3902;49.474;8.616;2023-05-21T08:39:07;20.00;99.90
7720;DHT22;3902;49.474;8.616;2023-05-21T08:41:34;20.10;99.90
7720;DHT22;3902;49.474;8.616;2023-05-21T08:44:01;20.10;99.90
7720;DHT22;3902;49.474;8.616;2023-05-21T08:46:32;20.20;99.90
7720;DHT22;3902;49.474;8.616;2023-05-21T08:49:01;20.30;99.90
7720;DHT22;3902;49.474;8.616;2023-05-21T08:51:28;20.30;99.90
7720;DHT22;3902;49.474;8.616;2023-05-21T08:53:55;20.40;99.90
7720;DHT22;3902;49.474;8.616;2023-05-21T08:56:21;20.40;99.90
7720;DHT22;3902;49.474;8.616;2023-05-21T08:58:47;20.50;99.90
7720;DHT22;3902;49.474;8.616;2023-05-21T09:01:13;20.50;99.90
7720;DHT22;3902;49.474;8.616;2023-05-21T09:03:43;20.60;99.90
7720;DHT22;3902;49.474;8.616;2023-05-21T09:06:12;20.70;99.90
7720;DHT22;3902;49.474;8.616;2023-05-21T09:08:43;20.80;99.90
7720;DHT22;3902;49.474;8.616;2023-05-21T09:11:13;20.90;99.90
7720;DHT22;3902;49.474;8.616;2023-05-21T09:13:39;21.10;99.90
7720;DHT22;3902;49.474;8.616;2023-05-21T09:16:05;21.20;99.90
7720;DHT22;3902;49.474;8.616;2023-05-21T09:18:31;21.30;99.90
7720;DHT22;3902;49.474;8.616;2023-05-21T09:20:58;21.40;99.90
7720;DHT22;3902;49.474;8.616;2023-05-21T09:23:43;21.50;99.90
7720;DHT22;3902;49.474;8.616;2023-05-21T09:26:11;21.70;99.90
7720;DHT22;3902;49.474;8.616;2023-05-21T09:28:37;21.70;99.90
7720;DHT22;3902;49.474;8.616;2023-05-21T09:31:02;21.80;99.90
7720;DHT22;3902;49.474;8.616;2023-05-21T09:33:28;21.90;99.90
7720;DHT22;3902;49.474;8.616;2023-05-21T09:35:54;22.00;99.90
7720;DHT22;3902;49.474;8.616;2023-05-21T09:38:23;22.10;99.90
7720;DHT22;3902;49.474;8.616;2023-05-21T09:40:49;22.20;99.90
7720;DHT22;3902;49.474;8.616;2023-05-21T09:43:14;22.20;99.90
7720;DHT22;3902;49.474;8.616;2023-05-21T09:45:50;22.20;99.90
7720;DHT22;3902;49.474;8.616;2023-05-21T09:48:16;22.30;99.90
7720;DHT22;3902;49.474;8.616;2023-05-21T09:50:42;22.30;99.90
7720;DHT22;3902;49.474;8.616;2023-05-21T09:53:11;22.30;99.90
7720;DHT22;3902;49.474;8.616;2023-05-21T09:55:40;22.40;99.90
7720;DHT22;3902;49.474;8.616;2023-05-21T09:58:06;22.40;99.90
7720;DHT22;3902;49.474;8.616;2023-05-21T10:00:32;22.50;99.90
7720;DHT22;3902;49.474;8.616;2023-05-21T10:03:01;22.60;99.90
7720;DHT22;3902;49.474;8.616;2023-05-21T10:05:29;22.60;99.90
7720;DHT22;3902;49.474;8.616;2023-05-21T10:07:59;22.70;99.90
7720;DHT22;3902;49.474;8.616;2023-05-21T10:10:28;22.70;99.90
7720;DHT22;3902;49.474;8.616;2023-05-21T10:13:02;22.70;99.90
7720;DHT22;3902;49.474;8.616;2023-05-21T10:15:31;22.80;99.90
7720;DHT22;3902;49.474;8.616;2023-05-21T10:18:00;22.90;99.90
7720;DHT22;3902;49.474;8.616;2023-05-21T10:20:26;22.90;99.90
7720;DHT22;3902;49.474;8.616;2023-05-21T10:22:52;22.90;99.90
7720;DHT22;3902;49.474;8.616;2023-05-21T10:25:18;22.90;99.90
7720;DHT22;3902;49.474;8.616;2023-05-21T10:27:44;22.90;99.90
7720;DHT22;3902;49.474;8.616;2023-05-21T10:30:10;22.90;99.90
7720;DHT22;3902;49.474;8.616;2023-05-21T10:32:39;23.00;99.90
7720;DHT22;3902;49.474;8.616;2023-05-21T10:35:06;23.10;99.90
7720;DHT22;3902;49.474;8.616;2023-05-21T10:37:33;23.10;99.90
7720;DHT22;3902;49.474;8.616;2023-05-21T10:39:59;23.20;99.90
7720;DHT22;3902;49.474;8.616;2023-05-21T10:45:18;23.40;99.90
7720;DHT22;3902;49.474;8.616;2023-05-21T10:53:32;23.80;99.90
7720;DHT22;3902;49.474;8.616;2023-05-21T10:56:23;24.00;99.90
7720;DHT22;3902;49.474;8.616;2023-05-21T10:59:09;24.10;99.90
7720;DHT22;3902;49.474;8.616;2023-05-21T11:01:37;24.20;99.90
7720;DHT22;3902;49.474;8.616;2023-05-21T11:04:04;24.30;99.90
7720;DHT22;3902;49.474;8.616;2023-05-21T11:06:30;24.30;99.90
7720;DHT22;3902;49.474;8.616;2023-05-21T11:08:56;24.50;99.90
7720;DHT22;3902;49.474;8.616;2023-05-21T11:14:30;24.80;99.90
7720;DHT22;3902;49.474;8.616;2023-05-21T11:17:14;24.90;99.90
7720;DHT22;3902;49.474;8.616;2023-05-21T11:19:46;25.10;99.90
7720;DHT22;3902;49.474;8.616;2023-05-21T11:22:23;25.20;99.90
7720;DHT22;3902;49.474;8.616;2023-05-21T11:24:50;25.30;99.90
7720;DHT22;3902;49.474;8.616;2023-05-21T11:27:36;25.40;99.90
7720;DHT22;3902;49.474;8.616;2023-05-21T11:35:56;25.80;99.90
7720;DHT22;3902;49.474;8.616;2023-05-21T11:38:21;26.00;99.90
7720;DHT22;3902;49.474;8.616;2023-05-21T11:40:51;26.20;99.90
7720;DHT22;3902;49.474;8.616;2023-05-21T11:43:20;26.40;99.90
7720;DHT22;3902;49.474;8.616;2023-05-21T11:45:46;26.50;99.90
7720;DHT22;3902;49.474;8.616;2023-05-21T11:48:15;26.60;99.90
7720;DHT22;3902;49.474;8.616;2023-05-21T11:50:40;26.70;99.90
7720;DHT22;3902;49.474;8.616;2023-05-21T11:53:10;26.80;99.90
7720;DHT22;3902;49.474;8.616;2023-05-21T11:55:39;26.90;99.90
7720;DHT22;3902;49.474;8.616;2023-05-21T11:58:08;27.10;99.90
7720;DHT22;3902;49.474;8.616;2023-05-21T12:00:39;27.20;99.90
7720;DHT22;3902;49.474;8.616;2023-05-21T12:03:05;27.50;99.90
7720;DHT22;3902;49.474;8.616;2023-05-21T12:05:46;27.60;99.90
7720;DHT22;3902;49.474;8.616;2023-05-21T12:08:12;27.70;99.90
7720;DHT22;3902;49.474;8.616;2023-05-21T12:10:38;27.80;99.90
7720;DHT22;3902;49.474;8.616;2023-05-21T12:13:06;27.90;99.90
7720;DHT22;3902;49.474;8.616;2023-05-21T12:15:32;28.00;99.90
7720;DHT22;3902;49.474;8.616;2023-05-21T12:17:57;28.20;99.90
7720;DHT22;3902;49.474;8.616;2023-05-21T12:20:25;28.30;99.90
7720;DHT22;3902;49.474;8.616;2023-05-21T12:22:51;28.40;99.90
7720;DHT22;3902;49.474;8.616;2023-05-21T12:25:18;28.50;99.90
7720;DHT22;3902;49.474;8.616;2023-05-21T12:27:44;28.60;99.90
7720;DHT22;3902;49.474;8.616;2023-05-21T12:30:11;28.70;99.90
7720;DHT22;3902;49.474;8.616;2023-05-21T12:32:39;28.80;99.90
7720;DHT22;3902;49.474;8.616;2023-05-21T12:35:08;28.90;99.90
7720;DHT22;3902;49.474;8.616;2023-05-21T12:37:33;28.90;99.90
7720;DHT22;3902;49.474;8.616;2023-05-21T12:40:04;29.10;99.90
7720;DHT22;3902;49.474;8.616;2023-05-21T12:42:32;29.10;99.90
7720;DHT22;3902;49.474;8.616;2023-05-21T12:45:05;29.20;99.90
7720;DHT22;3902;49.474;8.616;2023-05-21T12:47:31;29.40;99.90
7720;DHT22;3902;49.474;8.616;2023-05-21T12:50:01;29.40;99.90
7720;DHT22;3902;49.474;8.616;2023-05-21T12:52:27;29.70;99.90
7720;DHT22;3902;49.474;8.616;2023-05-21T12:54:54;29.80;99.90
7720;DHT22;3902;49.474;8.616;2023-05-21T12:57:34;29.90;99.90
7720;DHT22;3902;49.474;8.616;2023-05-21T13:00:01;30.00;99.90
7720;DHT22;3902;49.474;8.616;2023-05-21T13:02:28;30.10;99.90
7720;DHT22;3902;49.474;8.616;2023-05-21T13:05:00;30.10;99.90
7720;DHT22;3902;49.474;8.616;2023-05-21T13:07:27;30.20;99.90
7720;DHT22;3902;49.474;8.616;2023-05-21T13:09:53;30.20;99.90
7720;DHT22;3902;49.474;8.616;2023-05-21T13:12:21;30.20;99.90
7720;DHT22;3902;49.474;8.616;2023-05-21T13:14:49;30.20;99.90
7720;DHT22;3902;49.474;8.616;2023-05-21T13:17:15;30.20;99.90
7720;DHT22;3902;49.474;8.616;2023-05-21T13:19:40;30.20;99.90
7720;DHT22;3902;49.474;8.616;2023-05-21T13:22:06;30.30;99.90
7720;DHT22;3902;49.474;8.616;2023-05-21T13:24:32;30.20;99.90
7720;DHT22;3902;49.474;8.616;2023-05-21T13:26:57;30.20;99.90
7720;DHT22;3902;49.474;8.616;2023-05-21T13:29:23;30.30;98.50
7720;DHT22;3902;49.474;8.616;2023-05-21T13:31:48;30.10;97.80
7720;DHT22;3902;49.474;8.616;2023-05-21T13:34:14;30.00;98.60
7720;DHT22;3902;49.474;8.616;2023-05-21T13:36:40;30.00;98.80
7720;DHT22;3902;49.474;8.616;2023-05-21T13:39:06;30.00;97.40
7720;DHT22;3902;49.474;8.616;2023-05-21T13:41:31;30.10;97.20
7720;DHT22;3902;49.474;8.616;2023-05-21T13:43:58;30.10;97.40
7720;DHT22;3902;49.474;8.616;2023-05-21T13:46:23;30.10;97.80
7720;DHT22;3902;49.474;8.616;2023-05-21T13:48:49;30.10;96.00
7720;DHT22;3902;49.474;8.616;2023-05-21T13:51:14;30.20;96.80
7720;DHT22;3902;49.474;8.616;2023-05-21T13:53:40;30.20;96.70
7720;DHT22;3902;49.474;8.616;2023-05-21T13:56:05;30.30;95.80
7720;DHT22;3902;49.474;8.616;2023-05-21T13:58:31;30.30;95.70
7720;DHT22;3902;49.474;8.616;2023-05-21T14:01:03;30.30;95.70
7720;DHT22;3902;49.474;8.616;2023-05-21T14:03:28;30.50;96.10
7720;DHT22;3902;49.474;8.616;2023-05-21T14:05:55;30.60;95.90
7720;DHT22;3902;49.474;8.616;2023-05-21T14:08:23;30.70;96.60
7720;DHT22;3902;49.474;8.616;2023-05-21T14:10:50;30.80;95.60
7720;DHT22;3902;49.474;8.616;2023-05-21T14:13:16;30.80;95.00
7720;DHT22;3902;49.474;8.616;2023-05-21T14:15:42;30.80;94.90
7720;DHT22;3902;49.474;8.616;2023-05-21T14:18:07;30.80;95.70
7720;DHT22;3902;49.474;8.616;2023-05-21T14:20:37;30.80;95.60
7720;DHT22;3902;49.474;8.616;2023-05-21T14:23:03;30.70;95.00
7720;DHT22;3902;49.474;8.616;2023-05-21T14:25:29;30.60;93.80
7720;DHT22;3902;49.474;8.616;2023-05-21T14:27:54;30.50;94.00
7720;DHT22;3902;49.474;8.616;2023-05-21T14:30:20;30.40;92.50
7720;DHT22;3902;49.474;8.616;2023-05-21T14:32:45;30.40;93.30
7720;DHT22;3902;49.474;8.616;2023-05-21T14:35:11;30.30;94.10
7720;DHT22;3902;49.474;8.616;2023-05-21T14:37:36;30.20;94.80
7720;DHT22;3902;49.474;8.616;2023-05-21T14:40:02;30.10;94.60
7720;DHT22;3902;49.474;8.616;2023-05-21T14:42:32;29.80;91.90
7720;DHT22;3902;49.474;8.616;2023-05-21T14:44:58;29.70;94.30
7720;DHT22;3902;49.474;8.616;2023-05-21T14:47:24;29.70;93.60
7720;DHT22;3902;49.474;8.616;2023-05-21T14:49:49;29.60;92.40
7720;DHT22;3902;49.474;8.616;2023-05-21T14:52:15;29.60;94.10
7720;DHT22;3902;49.474;8.616;2023-05-21T14:54:40;29.50;95.00
7720;DHT22;3902;49.474;8.616;2023-05-21T14:57:06;29.40;92.50
7720;DHT22;3902;49.474;8.616;2023-05-21T14:59:31;29.30;94.40
7720;DHT22;3902;49.474;8.616;2023-05-21T15:01:57;29.20;92.70
7720;DHT22;3902;49.474;8.616;2023-05-21T15:04:22;29.20;93.90
7720;DHT22;3902;49.474;8.616;2023-05-21T15:06:48;29.10;94.60
7720;DHT22;3902;49.474;8.616;2023-05-21T15:09:13;29.10;95.80
7720;DHT22;3902;49.474;8.616;2023-05-21T15:11:39;29.10;96.70
7720;DHT22;3902;49.474;8.616;2023-05-21T15:14:04;29.10;97.10
7720;DHT22;3902;49.474;8.616;2023-05-21T15:16:30;29.10;97.10
7720;DHT22;3902;49.474;8.616;2023-05-21T15:18:56;29.10;96.40
7720;DHT22;3902;49.474;8.616;2023-05-21T15:21:21;29.10;96.80
7720;DHT22;3902;49.474;8.616;2023-05-21T15:23:47;29.10;97.20
7720;DHT22;3902;49.474;8.616;2023-05-21T15:26:12;29.10;97.50
7720;DHT22;3902;49.474;8.616;2023-05-21T15:28:38;29.20;97.40
7720;DHT22;3902;49.474;8.616;2023-05-21T15:31:03;29.20;97.60
7720;DHT22;3902;49.474;8.616;2023-05-21T15:33:29;29.20;96.90
7720;DHT22;3902;49.474;8.616;2023-05-21T15:35:54;29.10;95.60
7720;DHT22;3902;49.474;8.616;2023-05-21T15:38:20;29.20;97.10
7720;DHT22;3902;49.474;8.616;2023-05-21T15:40:46;29.10;97.00
7720;DHT22;3902;49.474;8.616;2023-05-21T15:43:11;29.10;96.90
7720;DHT22;3902;49.474;8.616;2023-05-21T15:45:37;29.10;97.30
7720;DHT22;3902;49.474;8.616;2023-05-21T15:48:03;29.00;98.40
7720;DHT22;3902;49.474;8.616;2023-05-21T15:50:28;29.00;98.30
7720;DHT22;3902;49.474;8.616;2023-05-21T15:52:54;28.90;96.70
7720;DHT22;3902;49.474;8.616;2023-05-21T15:55:19;28.90;97.90
7720;DHT22;3902;49.474;8.616;2023-05-21T15:57:45;28.90;98.10
7720;DHT22;3902;49.474;8.616;2023-05-21T16:00:11;28.80;98.40
7720;DHT22;3902;49.474;8.616;2023-05-21T16:02:37;28.80;98.30
7720;DHT22;3902;49.474;8.616;2023-05-21T16:05:02;28.80;98.20
7720;DHT22;3902;49.474;8.616;2023-05-21T16:07:28;28.80;98.20
7720;DHT22;3902;49.474;8.616;2023-05-21T16:09:53;28.70;97.70
7720;DHT22;3902;49.474;8.616;2023-05-21T16:12:19;28.70;96.80
7720;DHT22;3902;49.474;8.616;2023-05-21T16:14:46;28.70;96.60
7720;DHT22;3902;49.474;8.616;2023-05-21T16:17:14;28.60;95.40
7720;DHT22;3902;49.474;8.616;2023-05-21T16:19:39;28.60;96.70